sensor_id;sensor_type;location;lat;lon;timestamp;temperature;humidity
32095;DHT22;18608;53.688;10.748;2023-03-12T00:02:00;0.80;99.90
32095;DHT22;18608;53.688;10.748;2023-03-12T00:04:26;0.80;99.90
32095;DHT22;18608;53.688;10.748;2023-03-12T00:06:52;0.80;99.90
32095;DHT22;18608;53.688;10.748;2023-03-12T00:09:18;0.80;99.90
32095;DHT22;18608;53.688;10.748;2023-03-12T00:11:44;0.90;99.90
32095;DHT22;18608;53.688;10.748;2023-03-12T00:14:09;0.80;99.90
32095;DHT22;18608;53.688;10.748;2023-03-12T00:16:35;0.90;99.90
32095;DHT22;18608;53.688;10.748;2023-03-12T00:19:01;0.90;99.90
32095;DHT22;18608;53.688;10.748;2023-03-12T00:21:27;0.90;99.90
32095;DHT22;18608;53.688;10.748;2023-03-12T00:23:53;0.90;99.90
32095;DHT22;18608;53.688;10.748;2023-03-12T00:26:19;0.90;99.90
32095;DHT22;18608;53.688;10.748;2023-03-12T00:28:47;0.90;99.90
32095;DHT22;18608;53.688;10.748;2023-03-12T00:31:22;0.90;99.90
32095;DHT22;18608;53.688;10.748;2023-03-12T00:33:48;0.90;99.90
32095;DHT22;18608;53.688;10.748;2023-03-12T00:36:18;0.90;99.90
32095;DHT22;18608;53.688;10.748;2023-03-12T00:38:44;1.00;99.90
32095;DHT22;18608;53.688;10.748;2023-03-12T00:41:10;0.90;99.90
32095;DHT22;18608;53.688;10.748;2023-03-12T00:43:35;0.90;99.90
32095;DHT22;18608;53.688;10.748;2023-03-12T00:46:01;1.00;99.90
32095;DHT22;18608;53.688;10.748;2023-03-12T00:48:27;0.90;99.90
32095;DHT22;18608;53.688;10.748;2023-03-12T00:50:52;0.90;99.90
32095;DHT22;18608;53.688;10.748;2023-03-12T00:53:18;0.90;99.90
32095;DHT22;18608;53.688;10.748;2023-03-12T00:55:44;0.90;99.90
32095;DHT22;18608;53.688;10.748;2023-03-12T00:58:09;1.30;99.90
32095;DHT22;18608;53.688;10.748;2023-03-12T01:00:35;0.90;99.90
32095;DHT22;18608;53.688;10.748;2023-03-12T01:03:01;0.90;99.90
32095;DHT22;18608;53.688;10.748;2023-03-12T01:05:26;0.90;99.90
32095;DHT22;18608;53.688;10.748;2023-03-12T01:07:52;0.90;99.90
32095;DHT22;18608;53.688;10.748;2023-03-12T01:10:19;0.90;99.90
32095;DHT22;18608;53.688;10.748;2023-03-12T01:12:45;0.90;99.90
32095;DHT22;18608;53.688;10.748;2023-03-12T01:15:14;0.90;99.90
32095;DHT22;18608;53.688;10.748;2023-03-12T01:17:40;0.90;99.90
32095;DHT22;18608;53.688;10.748;2023-03-12T01:20:07;0.90;99.90
32095;DHT22;18608;53.688;10.748;2023-03-12T01:22:33;0.80;99.90
32095;DHT22;18608;53.688;10.748;2023-03-12T01:24:59;0.90;99.90
32095;DHT22;18608;53.688;10.748;2023-03-12T01:27:25;0.90;99.90
32095;DHT22;18608;53.688;10.748;2023-03-12T01:29:50;0.80;99.90
32095;DHT22;18608;53.688;10.748;2023-03-12T01:32:16;0.80;99.90
32095;DHT22;18608;53.688;10.748;2023-03-12T01:34:42;0.90;99.90
32095;DHT22;18608;53.688;10.748;2023-03-12T01:37:08;0.80;99.90
32095;DHT22;18608;53.688;10.748;2023-03-12T01:39:34;0.90;99.90
32095;DHT22;18608;53.688;10.748;2023-03-12T01:42:00;0.80;99.90
32095;DHT22;18608;53.688;10.748;2023-03-12T01:44:26;0.80;99.90
32095;DHT22;18608;53.688;10.748;2023-03-12T01:46:52;0.80;99.90
32095;DHT22;18608;53.688;10.748;2023-03-12T01:52:05;0.80;99.90
32095;DHT22;18608;53.688;10.748;2023-03-12T01:54:46;0.80;99.90
32095;DHT22;18608;53.688;10.748;2023-03-12T01:57:21;0.80;99.90
32095;DHT22;18608;53.688;10.748;2023-03-12T01:59:51;0.80;99.90
32095;DHT22;18608;53.688;10.748;2023-03-12T02:02:18;0.80;99.90
32095;DHT22;18608;53.688;10.748;2023-03-12T02:04:51;0.80;99.90
32095;DHT22;18608;53.688;10.748;2023-03-12T02:07:18;0.70;99.90
32095;DHT22;18608;53.688;10.748;2023-03-12T02:09:47;0.70;99.90
32095;DHT22;18608;53.688;10.748;2023-03-12T02:12:15;0.70;99.90
32095;DHT22;18608;53.688;10.748;2023-03-12T02:14:41;0.60;99.90
32095;DHT22;18608;53.688;10.748;2023-03-12T02:17:08;0.60;99.90
32095;DHT22;18608;53.688;10.748;2023-03-12T02:22:28;0.50;99.90
32095;DHT22;18608;53.688;10.748;2023-03-12T02:27:59;0.40;99.90
32095;DHT22;18608;53.688;10.748;2023-03-12T02:30:29;0.40;99.90
32095;DHT22;18608;53.688;10.748;2023-03-12T02:32:55;0.40;99.90
32095;DHT22;18608;53.688;10.748;2023-03-12T02:35:21;0.40;99.90
32095;DHT22;18608;53.688;10.748;2023-03-12T02:37:51;0.40;99.90
32095;DHT22;18608;53.688;10.748;2023-03-12T02:40:30;0.30;99.90
32095;DHT22;18608;53.688;10.748;2023-03-12T02:42:58;0.30;99.90
32095;DHT22;18608;53.688;10.748;2023-03-12T02:45:25;0.30;99.90
32095;DHT22;18608;53.688;10.748;2023-03-12T02:47:51;0.20;99.90
32095;DHT22;18608;53.688;10.748;2023-03-12T02:50:17;0.20;99.90
32095;DHT22;18608;53.688;10.748;2023-03-12T02:52:43;0.20;99.90
32095;DHT22;18608;53.688;10.748;2023-03-12T02:55:09;0.30;99.90
32095;DHT22;18608;53.688;10.748;2023-03-12T02:57:34;0.30;99.90
32095;DHT22;18608;53.688;10.748;2023-03-12T03:00:06;0.50;99.90
32095;DHT22;18608;53.688;10.748;2023-03-12T03:02:37;0.50;99.90
32095;DHT22;18608;53.688;10.748;2023-03-12T03:05:02;0.60;99.90
32095;DHT22;18608;53.688;10.748;2023-03-12T03:07:28;0.60;99.90
32095;DHT22;18608;53.688;10.748;2023-03-12T03:09:53;0.50;99.90
32095;DHT22;18608;53.688;10.748;2023-03-12T03:12:19;0.50;99.90
32095;DHT22;18608;53.688;10.748;2023-03-12T03:14:45;0.50;99.90
32095;DHT22;18608;53.688;10.748;2023-03-12T03:17:10;0.50;99.90
32095;DHT22;18608;53.688;10.748;2023-03-12T03:19:36;0.40;99.90
32095;DHT22;18608;53.688;10.748;2023-03-12T03:22:02;1.00;99.90
32095;DHT22;18608;53.688;10.748;2023-03-12T03:24:27;0.40;99.90
32095;DHT22;18608;53.688;10.748;2023-03-12T03:26:53;0.40;99.90
32095;DHT22;18608;53.688;10.748;2023-03-12T03:29:18;0.40;99.90
32095;DHT22;18608;53.688;10.748;2023-03-12T03:31:44;0.50;99.90
32095;DHT22;18608;53.688;10.748;2023-03-12T03:34:10;0.50;99.90
32095;DHT22;18608;53.688;10.748;2023-03-12T03:36:36;0.50;99.90
32095;DHT22;18608;53.688;10.748;2023-03-12T03:39:02;0.40;99.90
32095;DHT22;18608;53.688;10.748;2023-03-12T03:41:29;0.40;99.90
32095;DHT22;18608;53.688;10.748;2023-03-12T03:43:57;0.40;99.90
32095;DHT22;18608;53.688;10.748;2023-03-12T03:46:23;0.50;99.90
32095;DHT22;18608;53.688;10.748;2023-03-12T03:48:49;0.60;99.90
32095;DHT22;18608;53.688;10.748;2023-03-12T03:51:16;0.60;99.90
32095;DHT22;18608;53.688;10.748;2023-03-12T03:53:41;0.60;99.90
32095;DHT22;18608;53.688;10.748;2023-03-12T03:56:09;0.60;99.90
32095;DHT22;18608;53.688;10.748;2023-03-12T03:58:35;0.60;99.90
32095;DHT22;18608;53.688;10.748;2023-03-12T04:01:00;0.70;99.90
32095;DHT22;18608;53.688;10.748;2023-03-12T04:03:26;0.50;99.90
32095;DHT22;18608;53.688;10.748;2023-03-12T04:05:57;0.40;99.90
32095;DHT22;18608;53.688;10.748;2023-03-12T04:08:23;0.40;99.90
32095;DHT22;18608;53.688;10.748;2023-03-12T04:10:49;0.30;99.90
32095;DHT22;18608;53.688;10.748;2023-03-12T04:13:15;0.30;99.90
32095;DHT22;18608;53.688;10.748;2023-03-12T04:15:48;0.20;99.90
32095;DHT22;18608;53.688;10.748;2023-03-12T04:18:14;0.20;99.90
32095;DHT22;18608;53.688;10.748;2023-03-12T04:20:40;0.20;99.90
32095;DHT22;18608;53.688;10.748;2023-03-12T04:23:05;0.20;99.90
32095;DHT22;18608;53.688;10.748;2023-03-12T04:25:31;0.20;99.90
32095;DHT22;18608;53.688;10.748;2023-03-12T04:27:57;0.20;99.90
32095;DHT22;18608;53.688;10.748;2023-03-12T04:30:22;0.20;99.90
32095;DHT22;18608;53.688;10.748;2023-03-12T04:32:48;0.20;99.90
32095;DHT22;18608;53.688;10.748;2023-03-12T04:35:13;0.20;99.90
32095;DHT22;18608;53.688;10.748;2023-03-12T04:37:39;0.20;99.90
32095;DHT22;18608;53.688;10.748;2023-03-12T04:40:05;0.20;99.90
32095;DHT22;18608;53.688;10.748;2023-03-12T04:42:35;0.20;99.90
32095;DHT22;18608;53.688;10.748;2023-03-12T04:45:04;0.10;99.90
32095;DHT22;18608;53.688;10.748;2023-03-12T04:47:31;0.10;99.90
32095;DHT22;18608;53.688;10.748;2023-03-12T04:49:57;0.10;99.90
32095;DHT22;18608;53.688;10.748;2023-03-12T04:52:22;0.10;99.90
32095;DHT22;18608;53.688;10.748;2023-03-12T04:54:48;0.00;99.90
32095;DHT22;18608;53.688;10.748;2023-03-12T04:57:14;0.00;99.90
32095;DHT22;18608;53.688;10.748;2023-03-12T04:59:39;0.00;99.90
32095;DHT22;18608;53.688;10.748;2023-03-12T05:02:05;0.00;99.90
32095;DHT22;18608;53.688;10.748;2023-03-12T05:04:31;0.00;99.90
32095;DHT22;18608;53.688;10.748;2023-03-12T05:06:56;-0.10;99.90
32095;DHT22;18608;53.688;10.748;2023-03-12T05:09:22;-0.10;99.90
32095;DHT22;18608;53.688;10.748;2023-03-12T05:11:47;-0.10;99.90
32095;DHT22;18608;53.688;10.748;2023-03-12T05:14:13;-0.10;99.90
32095;DHT22;18608;53.688;10.748;2023-03-12T05:16:39;-0.10;99.90
32095;DHT22;18608;53.688;10.748;2023-03-12T05:19:04;-0.10;99.90
32095;DHT22;18608;53.688;10.748;2023-03-12T05:21:30;-0.10;99.90
32095;DHT22;18608;53.688;10.748;2023-03-12T05:23:57;-0.10;99.90
32095;DHT22;18608;53.688;10.748;2023-03-12T05:26:26;-0.10;99.90
32095;DHT22;18608;53.688;10.748;2023-03-12T05:28:52;-0.20;99.90
32095;DHT22;18608;53.688;10.748;2023-03-12T05:31:19;-0.20;99.90
32095;DHT22;18608;53.688;10.748;2023-03-12T05:33:45;-0.20;99.90
32095;DHT22;18608;53.688;10.748;2023-03-12T05:36:12;-0.20;99.90
32095;DHT22;18608;53.688;10.748;2023-03-12T05:38:37;-0.20;99.90
32095;DHT22;18608;53.688;10.748;2023-03-12T05:41:04;-0.20;99.90
32095;DHT22;18608;53.688;10.748;2023-03-12T05:43:30;-0.20;99.90
32095;DHT22;18608;53.688;10.748;2023-03-12T05:45:59;-0.20;99.90
32095;DHT22;18608;53.688;10.748;2023-03-12T05:48:26;-0.10;99.90
32095;DHT22;18608;53.688;10.748;2023-03-12T05:50:51;0.10;99.90
32095;DHT22;18608;53.688;10.748;2023-03-12T05:53:17;0.20;99.90
32095;DHT22;18608;53.688;10.748;2023-03-12T05:55:43;0.10;99.90
32095;DHT22;18608;53.688;10.748;2023-03-12T05:58:09;0.20;99.90
32095;DHT22;18608;53.688;10.748;2023-03-12T06:00:35;0.20;99.90
32095;DHT22;18608;53.688;10.748;2023-03-12T06:03:05;0.20;99.90
32095;DHT22;18608;53.688;10.748;2023-03-12T06:05:33;0.10;99.90
32095;DHT22;18608;53.688;10.748;2023-03-12T06:07:58;0.10;99.90
32095;DHT22;18608;53.688;10.748;2023-03-12T06:10:24;0.10;99.90
32095;DHT22;18608;53.688;10.748;2023-03-12T06:12:50;0.10;99.90
32095;DHT22;18608;53.688;10.748;2023-03-12T06:15:16;0.10;99.90
32095;DHT22;18608;53.688;10.748;2023-03-12T06:17:41;0.20;99.90
32095;DHT22;18608;53.688;10.748;2023-03-12T06:20:07;0.20;99.90
32095;DHT22;18608;53.688;10.748;2023-03-12T06:22:33;0.30;99.90
32095;DHT22;18608;53.688;10.748;2023-03-12T06:24:59;0.20;99.90
32095;DHT22;18608;53.688;10.748;2023-03-12T06:27:25;0.30;99.90
32095;DHT22;18608;53.688;10.748;2023-03-12T06:29:50;0.30;99.90
32095;DHT22;18608;53.688;10.748;2023-03-12T06:32:16;0.30;99.90
32095;DHT22;18608;53.688;10.748;2023-03-12T06:34:43;0.40;99.90
32095;DHT22;18608;53.688;10.748;2023-03-12T06:37:08;0.40;99.90
32095;DHT22;18608;53.688;10.748;2023-03-12T06:39:34;0.40;99.90
32095;DHT22;18608;53.688;10.748;2023-03-12T06:42:00;0.40;99.90
32095;DHT22;18608;53.688;10.748;2023-03-12T06:44:26;-0.70;99.90
32095;DHT22;18608;53.688;10.748;2023-03-12T06:46:51;0.40;99.90
32095;DHT22;18608;53.688;10.748;2023-03-12T06:49:18;0.40;99.90
32095;DHT22;18608;53.688;10.748;2023-03-12T06:51:43;0.40;99.90
32095;DHT22;18608;53.688;10.748;2023-03-12T06:54:09;0.40;99.90
32095;DHT22;18608;53.688;10.748;2023-03-12T06:56:35;0.40;99.90
32095;DHT22;18608;53.688;10.748;2023-03-12T06:59:00;0.40;99.90
32095;DHT22;18608;53.688;10.748;2023-03-12T07:01:26;0.50;99.90
32095;DHT22;18608;53.688;10.748;2023-03-12T07:03:52;0.60;99.90
32095;DHT22;18608;53.688;10.748;2023-03-12T07:06:20;0.60;99.90
32095;DHT22;18608;53.688;10.748;2023-03-12T07:08:46;0.60;99.90
32095;DHT22;18608;53.688;10.748;2023-03-12T07:11:13;0.60;99.90
32095;DHT22;18608;53.688;10.748;2023-03-12T07:13:40;0.80;99.90
32095;DHT22;18608;53.688;10.748;2023-03-12T07:16:06;1.10;99.90
32095;DHT22;18608;53.688;10.748;2023-03-12T07:18:32;1.10;99.90
32095;DHT22;18608;53.688;10.748;2023-03-12T07:20:59;1.00;99.90
32095;DHT22;18608;53.688;10.748;2023-03-12T07:23:25;1.00;99.90
32095;DHT22;18608;53.688;10.748;2023-03-12T07:25:51;1.10;99.90
32095;DHT22;18608;53.688;10.748;2023-03-12T07:28:17;1.20;99.90
32095;DHT22;18608;53.688;10.748;2023-03-12T07:30:43;1.30;99.90
32095;DHT22;18608;53.688;10.748;2023-03-12T07:33:15;1.40;99.90
32095;DHT22;18608;53.688;10.748;2023-03-12T07:35:41;1.50;99.90
32095;DHT22;18608;53.688;10.748;2023-03-12T07:38:07;1.40;99.90
32095;DHT22;18608;53.688;10.748;2023-03-12T07:40:34;1.60;99.90
32095;DHT22;18608;53.688;10.748;2023-03-12T07:43:00;1.80;99.90
32095;DHT22;18608;53.688;10.748;2023-03-12T07:45:25;1.90;99.90
32095;DHT22;18608;53.688;10.748;2023-03-12T07:47:51;2.00;99.90
32095;DHT22;18608;53.688;10.748;2023-03-12T07:50:17;2.00;99.90
32095;DHT22;18608;53.688;10.748;2023-03-12T07:52:44;1.90;99.90
32095;DHT22;18608;53.688;10.748;2023-03-12T07:55:10;1.90;99.90
32095;DHT22;18608;53.688;10.748;2023-03-12T07:57:36;1.90;99.90
32095;DHT22;18608;53.688;10.748;2023-03-12T08:00:02;2.00;99.90
32095;DHT22;18608;53.688;10.748;2023-03-12T08:02:32;2.00;99.90
32095;DHT22;18608;53.688;10.748;2023-03-12T08:04:57;2.10;99.90
32095;DHT22;18608;53.688;10.748;2023-03-12T08:07:23;2.40;99.90
32095;DHT22;18608;53.688;10.748;2023-03-12T08:09:49;2.70;99.90
32095;DHT22;18608;53.688;10.748;2023-03-12T08:12:14;2.70;99.90
32095;DHT22;18608;53.688;10.748;2023-03-12T08:14:40;2.80;99.90
32095;DHT22;18608;53.688;10.748;2023-03-12T08:17:06;2.60;99.90
32095;DHT22;18608;53.688;10.748;2023-03-12T08:19:32;2.80;99.90
32095;DHT22;18608;53.688;10.748;2023-03-12T08:21:57;3.00;99.90
32095;DHT22;18608;53.688;10.748;2023-03-12T08:24:23;3.10;99.90
32095;DHT22;18608;53.688;10.748;2023-03-12T08:26:49;3.30;99.90
32095;DHT22;18608;53.688;10.748;2023-03-12T08:29:15;3.60;99.90
32095;DHT22;18608;53.688;10.748;2023-03-12T08:31:41;3.90;99.90
32095;DHT22;18608;53.688;10.748;2023-03-12T08:34:07;4.20;99.90
32095;DHT22;18608;53.688;10.748;2023-03-12T08:36:32;4.30;99.90
32095;DHT22;18608;53.688;10.748;2023-03-12T08:38:58;4.40;99.90
32095;DHT22;18608;53.688;10.748;2023-03-12T08:41:24;4.20;99.90
32095;DHT22;18608;53.688;10.748;2023-03-12T08:43:49;4.30;99.90
32095;DHT22;18608;53.688;10.748;2023-03-12T08:46:15;5.00;99.90
32095;DHT22;18608;53.688;10.748;2023-03-12T08:48:40;5.00;99.90
32095;DHT22;18608;53.688;10.748;2023-03-12T08:51:06;5.30;99.90
32095;DHT22;18608;53.688;10.748;2023-03-12T08:53:33;5.50;99.90
32095;DHT22;18608;53.688;10.748;2023-03-12T08:56:00;5.20;99.90
32095;DHT22;18608;53.688;10.748;2023-03-12T08:58:26;4.60;99.90
32095;DHT22;18608;53.688;10.748;2023-03-12T09:00:52;4.60;99.90
32095;DHT22;18608;53.688;10.748;2023-03-12T09:03:18;4.90;99.90
32095;DHT22;18608;53.688;10.748;2023-03-12T09:05:46;4.80;99.90
32095;DHT22;18608;53.688;10.748;2023-03-12T09:08:13;4.70;99.90
32095;DHT22;18608;53.688;10.748;2023-03-12T09:10:39;4.80;99.90
32095;DHT22;18608;53.688;10.748;2023-03-12T09:13:06;4.70;99.90
32095;DHT22;18608;53.688;10.748;2023-03-12T09:15:32;4.60;99.90
32095;DHT22;18608;53.688;10.748;2023-03-12T09:17:58;4.50;99.90
32095;DHT22;18608;53.688;10.748;2023-03-12T09:20:24;4.40;99.90
32095;DHT22;18608;53.688;10.748;2023-03-12T09:22:50;4.40;99.90
32095;DHT22;18608;53.688;10.748;2023-03-12T09:25:16;4.40;99.90
32095;DHT22;18608;53.688;10.748;2023-03-12T09:27:46;4.10;99.90
32095;DHT22;18608;53.688;10.748;2023-03-12T09:30:15;4.00;99.90
32095;DHT22;18608;53.688;10.748;2023-03-12T09:32:42;3.90;99.90
32095;DHT22;18608;53.688;10.748;2023-03-12T09:35:10;4.00;99.90
32095;DHT22;18608;53.688;10.748;2023-03-12T09:37:36;4.20;99.90
32095;DHT22;18608;53.688;10.748;2023-03-12T09:40:01;4.40;99.90
32095;DHT22;18608;53.688;10.748;2023-03-12T09:42:40;4.50;99.90
32095;DHT22;18608;53.688;10.748;2023-03-12T09:45:13;4.60;99.90
32095;DHT22;18608;53.688;10.748;2023-03-12T09:53:02;5.40;99.90
32095;DHT22;18608;53.688;10.748;2023-03-12T09:55:39;5.20;99.90
32095;DHT22;18608;53.688;10.748;2023-03-12T09:58:30;5.10;99.90
32095;DHT22;18608;53.688;10.748;2023-03-12T10:01:15;4.90;99.90
32095;DHT22;18608;53.688;10.748;2023-03-12T10:06:54;5.50;99.90
32095;DHT22;18608;53.688;10.748;2023-03-12T10:15:19;5.00;99.90
32095;DHT22;18608;53.688;10.748;2023-03-12T10:18:13;5.10;99.90
32095;DHT22;18608;53.688;10.748;2023-03-12T10:26:44;5.30;99.90
32095;DHT22;18608;53.688;10.748;2023-03-12T10:29:18;5.30;99.90
32095;DHT22;18608;53.688;10.748;2023-03-12T10:31:50;5.30;99.90
32095;DHT22;18608;53.688;10.748;2023-03-12T10:34:22;5.40;99.90
32095;DHT22;18608;53.688;10.748;2023-03-12T10:36:49;5.30;99.90
32095;DHT22;18608;53.688;10.748;2023-03-12T10:39:18;5.70;99.90
32095;DHT22;18608;53.688;10.748;2023-03-12T10:41:46;5.60;99.90
32095;DHT22;18608;53.688;10.748;2023-03-12T10:44:23;5.60;99.90
32095;DHT22;18608;53.688;10.748;2023-03-12T10:49:30;5.00;99.90
32095;DHT22;18608;53.688;10.748;2023-03-12T10:56:55;5.10;99.90
32095;DHT22;18608;53.688;10.748;2023-03-12T10:59:24;5.10;99.90
32095;DHT22;18608;53.688;10.748;2023-03-12T11:01:51;5.10;99.90
32095;DHT22;18608;53.688;10.748;2023-03-12T11:04:23;5.30;99.90
32095;DHT22;18608;53.688;10.748;2023-03-12T11:12:32;5.40;99.90
32095;DHT22;18608;53.688;10.748;2023-03-12T11:15:27;5.40;99.90
32095;DHT22;18608;53.688;10.748;2023-03-12T11:20:52;5.30;99.90
32095;DHT22;18608;53.688;10.748;2023-03-12T11:23:29;5.20;99.90
32095;DHT22;18608;53.688;10.748;2023-03-12T11:26:04;5.30;99.90
32095;DHT22;18608;53.688;10.748;2023-03-12T11:28:43;5.40;99.90
32095;DHT22;18608;53.688;10.748;2023-03-12T11:31:33;5.30;99.90
32095;DHT22;18608;53.688;10.748;2023-03-12T11:34:04;5.00;99.90
32095;DHT22;18608;53.688;10.748;2023-03-12T11:45:40;4.80;99.90
32095;DHT22;18608;53.688;10.748;2023-03-12T11:51:04;4.70;99.90
32095;DHT22;18608;53.688;10.748;2023-03-12T11:53:44;4.80;99.90
32095;DHT22;18608;53.688;10.748;2023-03-12T11:59:08;4.80;99.90
32095;DHT22;18608;53.688;10.748;2023-03-12T12:04:44;4.60;99.90
32095;DHT22;18608;53.688;10.748;2023-03-12T12:21:18;4.90;99.90
32095;DHT22;18608;53.688;10.748;2023-03-12T12:29:02;4.80;99.90
32095;DHT22;18608;53.688;10.748;2023-03-12T12:31:31;4.80;99.90
32095;DHT22;18608;53.688;10.748;2023-03-12T12:36:48;4.90;99.90
32095;DHT22;18608;53.688;10.748;2023-03-12T12:41:46;4.90;99.90
32095;DHT22;18608;53.688;10.748;2023-03-12T12:44:31;4.80;99.90
32095;DHT22;18608;53.688;10.748;2023-03-12T12:47:03;4.80;99.90
32095;DHT22;18608;53.688;10.748;2023-03-12T12:49:48;4.60;99.90
32095;DHT22;18608;53.688;10.748;2023-03-12T12:52:20;4.60;99.90
32095;DHT22;18608;53.688;10.748;2023-03-12T12:58:04;4.30;99.90
32095;DHT22;18608;53.688;10.748;2023-03-12T13:00:49;4.30;99.90
32095;DHT22;18608;53.688;10.748;2023-03-12T13:03:20;4.30;99.90
32095;DHT22;18608;53.688;10.748;2023-03-12T13:05:56;4.30;99.90
32095;DHT22;18608;53.688;10.748;2023-03-12T13:08:57;4.40;99.90
32095;DHT22;18608;53.688;10.748;2023-03-12T13:11:42;4.30;99.90
32095;DHT22;18608;53.688;10.748;2023-03-12T13:21:43;3.80;99.90
32095;DHT22;18608;53.688;10.748;2023-03-12T13:24:22;3.90;99.90
32095;DHT22;18608;53.688;10.748;2023-03-12T13:29:38;4.00;99.90
32095;DHT22;18608;53.688;10.748;2023-03-12T13:32:08;4.10;99.90
32095;DHT22;18608;53.688;10.748;2023-03-12T13:34:45;4.20;99.90
32095;DHT22;18608;53.688;10.748;2023-03-12T13:37:25;4.30;99.90
32095;DHT22;18608;53.688;10.748;2023-03-12T13:39:52;4.20;99.90
32095;DHT22;18608;53.688;10.748;2023-03-12T13:42:25;4.10;99.90
32095;DHT22;18608;53.688;10.748;2023-03-12T13:44:51;4.10;99.90
32095;DHT22;18608;53.688;10.748;2023-03-12T13:47:31;4.10;99.90
32095;DHT22;18608;53.688;10.748;2023-03-12T13:50:07;4.00;99.90
32095;DHT22;18608;53.688;10.748;2023-03-12T13:52:52;4.00;99.90
32095;DHT22;18608;53.688;10.748;2023-03-12T13:55:25;3.90;99.90
32095;DHT22;18608;53.688;10.748;2023-03-12T13:58:17;4.00;99.90
32095;DHT22;18608;53.688;10.748;2023-03-12T14:01:01;4.00;99.90
32095;DHT22;18608;53.688;10.748;2023-03-12T14:03:35;3.90;99.90
32095;DHT22;18608;53.688;10.748;2023-03-12T14:06:15;3.80;99.90
32095;DHT22;18608;53.688;10.748;2023-03-12T14:14:19;3.80;99.90
32095;DHT22;18608;53.688;10.748;2023-03-12T14:16:51;3.80;99.90
32095;DHT22;18608;53.688;10.748;2023-03-12T14:19:23;3.70;99.90
32095;DHT22;18608;53.688;10.748;2023-03-12T14:21:50;4.70;99.90
32095;DHT22;18608;53.688;10.748;2023-03-12T14:24:32;3.70;99.90
32095;DHT22;18608;53.688;10.748;2023-03-12T14:27:00;3.60;99.90
32095;DHT22;18608;53.688;10.748;2023-03-12T14:29:36;3.50;99.90
32095;DHT22;18608;53.688;10.748;2023-03-12T14:32:12;3.50;99.90
32095;DHT22;18608;53.688;10.748;2023-03-12T14:34:44;3.40;99.90
32095;DHT22;18608;53.688;10.748;2023-03-12T14:37:18;3.30;99.90
32095;DHT22;18608;53.688;10.748;2023-03-12T14:39:54;3.40;99.90
32095;DHT22;18608;53.688;10.748;2023-03-12T14:42:26;3.50;99.90
32095;DHT22;18608;53.688;10.748;2023-03-12T14:45:09;3.30;99.90
32095;DHT22;18608;53.688;10.748;2023-03-12T14:47:39;3.20;99.90
32095;DHT22;18608;53.688;10.748;2023-03-12T14:50:05;3.10;99.90
32095;DHT22;18608;53.688;10.748;2023-03-12T14:52:31;3.00;99.90
32095;DHT22;18608;53.688;10.748;2023-03-12T14:55:07;2.80;99.90
32095;DHT22;18608;53.688;10.748;2023-03-12T14:57:33;2.80;99.90
32095;DHT22;18608;53.688;10.748;2023-03-12T15:00:00;2.70;99.90
32095;DHT22;18608;53.688;10.748;2023-03-12T15:02:28;2.70;99.90
32095;DHT22;18608;53.688;10.748;2023-03-12T15:04:56;2.80;99.90
32095;DHT22;18608;53.688;10.748;2023-03-12T15:07:34;2.70;99.90
32095;DHT22;18608;53.688;10.748;2023-03-12T15:10:03;2.60;99.90
32095;DHT22;18608;53.688;10.748;2023-03-12T15:12:35;2.50;99.90
32095;DHT22;18608;53.688;10.748;2023-03-12T15:15:18;2.50;99.90
32095;DHT22;18608;53.688;10.748;2023-03-12T15:17:47;2.40;99.90
32095;DHT22;18608;53.688;10.748;2023-03-12T15:20:14;2.30;99.90
32095;DHT22;18608;53.688;10.748;2023-03-12T15:22:40;2.20;99.90
32095;DHT22;18608;53.688;10.748;2023-03-12T15:25:31;2.10;99.90
32095;DHT22;18608;53.688;10.748;2023-03-12T15:28:26;2.00;99.90
32095;DHT22;18608;53.688;10.748;2023-03-12T15:33:30;2.00;99.90
32095;DHT22;18608;53.688;10.748;2023-03-12T15:38:49;2.00;99.90
32095;DHT22;18608;53.688;10.748;2023-03-12T15:41:31;1.90;99.90
32095;DHT22;18608;53.688;10.748;2023-03-12T15:44:00;1.90;99.90
32095;DHT22;18608;53.688;10.748;2023-03-12T15:46:26;1.90;99.90
32095;DHT22;18608;53.688;10.748;2023-03-12T15:48:55;2.00;99.90
32095;DHT22;18608;53.688;10.748;2023-03-12T15:54:20;1.80;99.90
32095;DHT22;18608;53.688;10.748;2023-03-12T15:56:48;1.80;99.90
32095;DHT22;18608;53.688;10.748;2023-03-12T15:59:26;1.70;99.90
32095;DHT22;18608;53.688;10.748;2023-03-12T16:01:53;1.70;99.90
32095;DHT22;18608;53.688;10.748;2023-03-12T16:04:20;1.70;99.90
32095;DHT22;18608;53.688;10.748;2023-03-12T16:06:47;1.60;99.90
32095;DHT22;18608;53.688;10.748;2023-03-12T16:09:22;1.70;99.90
32095;DHT22;18608;53.688;10.748;2023-03-12T16:11:51;1.70;99.90
32095;DHT22;18608;53.688;10.748;2023-03-12T16:16:44;1.60;99.90
32095;DHT22;18608;53.688;10.748;2023-03-12T16:19:15;1.60;99.90
32095;DHT22;18608;53.688;10.748;2023-03-12T16:21:42;1.60;99.90
32095;DHT22;18608;53.688;10.748;2023-03-12T16:24:08;1.60;99.90
32095;DHT22;18608;53.688;10.748;2023-03-12T16:26:35;1.60;99.90
32095;DHT22;18608;53.688;10.748;2023-03-12T16:29:03;1.60;99.90
32095;DHT22;18608;53.688;10.748;2023-03-12T16:31:28;1.60;99.90
32095;DHT22;18608;53.688;10.748;2023-03-12T16:33:54;1.60;99.90
32095;DHT22;18608;53.688;10.748;2023-03-12T16:36:20;1.60;99.90
32095;DHT22;18608;53.688;10.748;2023-03-12T16:38:46;1.50;99.90
32095;DHT22;18608;53.688;10.748;2023-03-12T16:41:15;1.50;99.90
32095;DHT22;18608;53.688;10.748;2023-03-12T16:43:43;1.50;99.90
32095;DHT22;18608;53.688;10.748;2023-03-12T16:46:09;1.40;99.90
32095;DHT22;18608;53.688;10.748;2023-03-12T16:48:35;1.40;99.90
32095;DHT22;18608;53.688;10.748;2023-03-12T16:51:01;1.90;99.90
32095;DHT22;18608;53.688;10.748;2023-03-12T16:53:27;1.30;99.90
32095;DHT22;18608;53.688;10.748;2023-03-12T16:55:55;1.20;99.90
32095;DHT22;18608;53.688;10.748;2023-03-12T16:58:22;1.20;99.90
32095;DHT22;18608;53.688;10.748;2023-03-12T17:00:50;1.20;99.90
32095;DHT22;18608;53.688;10.748;2023-03-12T17:05:44;1.20;99.90
32095;DHT22;18608;53.688;10.748;2023-03-12T17:08:10;1.20;99.90
32095;DHT22;18608;53.688;10.748;2023-03-12T17:10:36;1.30;99.90
32095;DHT22;18608;53.688;10.748;2023-03-12T17:13:01;1.20;99.90
32095;DHT22;18608;53.688;10.748;2023-03-12T17:15:28;1.20;99.90
32095;DHT22;18608;53.688;10.748;2023-03-12T17:17:58;1.20;99.90
32095;DHT22;18608;53.688;10.748;2023-03-12T17:20:28;1.30;99.90
32095;DHT22;18608;53.688;10.748;2023-03-12T17:22:59;1.30;99.90
32095;DHT22;18608;53.688;10.748;2023-03-12T17:25:27;1.30;99.90
32095;DHT22;18608;53.688;10.748;2023-03-12T17:27:53;1.30;99.90
32095;DHT22;18608;53.688;10.748;2023-03-12T17:30:20;1.30;99.90
32095;DHT22;18608;53.688;10.748;2023-03-12T17:32:47;1.30;99.90
32095;DHT22;18608;53.688;10.748;2023-03-12T17:35:12;1.30;99.90
32095;DHT22;18608;53.688;10.748;2023-03-12T17:37:38;1.30;99.90
32095;DHT22;18608;53.688;10.748;2023-03-12T17:40:04;1.40;99.90